createdAt,value
2018-11-27T00:00:01.475Z,18.23
2018-11-27T00:01:01.561Z,18.19
2018-11-27T00:02:01.528Z,18.22
2018-11-27T00:03:01.971Z,18.22
2018-11-27T00:04:01.326Z,18.21
2018-11-27T00:05:01.866Z,18.22
2018-11-27T00:06:01.713Z,18.21
2018-11-27T00:07:01.416Z,18.21
2018-11-27T00:08:01.456Z,18.21
2018-11-27T00:09:01.413Z,18.18
2018-11-27T00:10:01.658Z,18.21
2018-11-27T00:11:01.357Z,18.18
2018-11-27T00:12:01.540Z,18.18
2018-11-27T00:13:01.874Z,18.18
2018-11-27T00:14:01.885Z,18.18
2018-11-27T00:15:01.683Z,18.19
2018-11-27T00:16:01.565Z,18.19
2018-11-27T00:17:01.900Z,18.18
2018-11-27T00:18:01.463Z,18.16
2018-11-27T00:19:01.854Z,18.19
2018-11-27T00:20:01.450Z,18.18
2018-11-27T00:21:01.462Z,18.16
2018-11-27T00:22:01.309Z,18.18
2018-11-27T00:23:01.444Z,18.16
2018-11-27T00:24:01.583Z,18.18
2018-11-27T00:25:01.364Z,18.15
2018-11-27T00:26:01.800Z,18.16
2018-11-27T00:27:01.396Z,18.15
2018-11-27T00:28:01.836Z,18.15
2018-11-27T00:29:02.197Z,18.13
2018-11-27T00:30:01.769Z,18.16
2018-11-27T00:31:01.406Z,18.15
2018-11-27T00:32:01.739Z,18.13
2018-11-27T00:33:01.884Z,18.15
2018-11-27T00:34:01.758Z,18.15
2018-11-27T00:35:01.831Z,18.13
2018-11-27T00:36:01.626Z,18.12
2018-11-27T00:37:01.416Z,18.12
2018-11-27T00:38:01.502Z,18.13
2018-11-27T00:39:01.673Z,18.13
2018-11-27T00:40:01.773Z,18.13
2018-11-27T00:41:01.431Z,18.12
2018-11-27T00:42:01.772Z,18.15
2018-11-27T00:43:01.452Z,18.13
2018-11-27T00:44:02.005Z,18.13
2018-11-27T00:45:01.416Z,18.13
2018-11-27T00:46:01.377Z,18.11
2018-11-27T00:47:01.286Z,18.11
2018-11-27T00:48:01.545Z,18.12
2018-11-27T00:49:01.435Z,18.11
2018-11-27T00:50:01.383Z,18.13
2018-11-27T00:51:01.559Z,18.11
2018-11-27T00:52:01.389Z,18.11
2018-11-27T00:53:01.875Z,18.11
2018-11-27T00:54:01.338Z,18.09
2018-11-27T00:55:01.513Z,18.09
2018-11-27T00:56:01.337Z,18.12
2018-11-27T00:57:01.364Z,18.09
2018-11-27T00:58:01.266Z,18.11
2018-11-27T00:59:01.463Z,18.11
2018-11-27T01:00:01.455Z,18.11
2018-11-27T01:01:01.457Z,18.09
2018-11-27T01:02:01.780Z,18.09
2018-11-27T01:03:01.706Z,18.07
2018-11-27T01:04:01.451Z,18.08
2018-11-27T01:05:01.336Z,18.08
2018-11-27T01:06:01.496Z,18.09
2018-11-27T01:07:01.706Z,18.08
2018-11-27T01:08:01.431Z,18.07
2018-11-27T01:09:01.306Z,18.07
2018-11-27T01:10:01.387Z,18.08
2018-11-27T01:11:01.689Z,18.08
2018-11-27T01:12:01.461Z,18.08
2018-11-27T01:13:01.876Z,18.08
2018-11-27T01:14:01.555Z,18.07
2018-11-27T01:15:01.406Z,18.05
2018-11-27T01:16:02.350Z,18.07
2018-11-27T01:17:01.442Z,18.08
2018-11-27T01:18:01.821Z,18.07
2018-11-27T01:19:01.594Z,18.05
2018-11-27T01:20:01.525Z,18.07
2018-11-27T01:21:01.399Z,18.05
2018-11-27T01:22:01.407Z,18.07
2018-11-27T01:23:01.387Z,18.07
2018-11-27T01:24:01.447Z,18.07
2018-11-27T01:25:01.565Z,18.07
2018-11-27T01:26:02.327Z,18.04
2018-11-27T01:27:01.384Z,18.05
2018-11-27T01:28:01.959Z,18.05
2018-11-27T01:29:01.411Z,18.02
2018-11-27T01:30:01.354Z,18.02
2018-11-27T01:31:01.448Z,18.02
2018-11-27T01:32:01.865Z,18.04
2018-11-27T01:33:01.460Z,18.04
2018-11-27T01:34:01.511Z,18.04
2018-11-27T01:35:01.944Z,18.01
2018-11-27T01:36:01.667Z,18.01
2018-11-27T01:37:01.306Z,18.02
2018-11-27T01:38:01.317Z,18.01
2018-11-27T01:39:01.356Z,18.04
2018-11-27T01:40:01.551Z,18.01
2018-11-27T01:41:01.787Z,18.01
2018-11-27T01:42:01.421Z,18
2018-11-27T01:43:01.313Z,18.01
2018-11-27T01:44:01.352Z,18.02
2018-11-27T01:45:02.345Z,18.01
2018-11-27T01:46:01.411Z,18.04
2018-11-27T01:47:01.357Z,18.05
2018-11-27T01:48:01.534Z,18.02
2018-11-27T01:49:01.454Z,18.01
2018-11-27T01:50:01.435Z,18.02
2018-11-27T01:51:01.387Z,18.04
2018-11-27T01:52:01.694Z,18.01
2018-11-27T01:53:01.699Z,18.01
2018-11-27T01:54:01.508Z,18
2018-11-27T01:55:01.334Z,18.01
2018-11-27T01:56:01.348Z,18
2018-11-27T01:57:01.313Z,18.02
2018-11-27T01:58:01.412Z,18.05
2018-11-27T01:59:01.426Z,18
2018-11-27T02:00:01.787Z,18.04
2018-11-27T02:01:01.624Z,18.01
2018-11-27T02:02:01.384Z,18
2018-11-27T02:03:02.164Z,17.98
2018-11-27T02:04:01.472Z,18
2018-11-27T02:05:01.828Z,17.98
2018-11-27T02:06:01.775Z,18.02
2018-11-27T02:07:01.166Z,18
2018-11-27T02:08:01.575Z,17.97
2018-11-27T02:09:01.769Z,17.98
2018-11-27T02:10:01.327Z,18
2018-11-27T02:11:01.523Z,18
2018-11-27T02:12:01.754Z,18
2018-11-27T02:13:01.804Z,18
2018-11-27T02:14:01.878Z,18
2018-11-27T02:15:01.531Z,18
2018-11-27T02:16:01.538Z,17.98
2018-11-27T02:17:01.385Z,17.97
2018-11-27T02:18:01.313Z,17.98
2018-11-27T02:19:01.561Z,17.97
2018-11-27T02:20:01.410Z,17.98
2018-11-27T02:21:01.563Z,18.01
2018-11-27T02:22:01.523Z,17.98
2018-11-27T02:23:01.416Z,17.98
2018-11-27T02:24:01.351Z,18
2018-11-27T02:25:01.770Z,17.98
2018-11-27T02:26:01.366Z,18
2018-11-27T02:27:01.349Z,18
2018-11-27T02:28:01.468Z,18
2018-11-27T02:29:01.490Z,17.97
2018-11-27T02:30:01.644Z,17.97
2018-11-27T02:31:01.461Z,17.95
2018-11-27T02:32:01.420Z,17.97
2018-11-27T02:33:01.439Z,17.98
2018-11-27T02:34:01.459Z,17.97
2018-11-27T02:35:01.247Z,17.95
2018-11-27T02:36:01.355Z,17.93
2018-11-27T02:37:01.750Z,17.93
2018-11-27T02:38:01.415Z,17.93
2018-11-27T02:39:01.494Z,17.94
2018-11-27T02:40:01.555Z,17.94
2018-11-27T02:41:02.052Z,17.94
2018-11-27T02:42:01.569Z,17.94
2018-11-27T02:43:01.874Z,17.95
2018-11-27T02:44:01.304Z,17.97
2018-11-27T02:45:01.364Z,17.94
2018-11-27T02:46:01.213Z,17.93
2018-11-27T02:47:01.386Z,17.94
2018-11-27T02:48:01.560Z,17.98
2018-11-27T02:49:01.678Z,17.95
2018-11-27T02:50:01.553Z,17.94
2018-11-27T02:51:02.207Z,17.94
2018-11-27T02:52:01.793Z,17.95
2018-11-27T02:53:01.285Z,17.94
2018-11-27T02:54:01.528Z,17.94
2018-11-27T02:55:01.807Z,17.93
2018-11-27T02:56:01.720Z,17.93
2018-11-27T02:57:01.801Z,17.93
2018-11-27T02:58:01.547Z,17.94
2018-11-27T02:59:01.458Z,17.95
2018-11-27T03:00:01.361Z,17.93
2018-11-27T03:01:01.580Z,17.94
2018-11-27T03:02:01.269Z,17.94
2018-11-27T03:03:01.404Z,17.94
2018-11-27T03:04:01.971Z,17.94
2018-11-27T03:05:01.661Z,17.93
2018-11-27T03:06:01.422Z,17.95
2018-11-27T03:07:01.408Z,17.94
2018-11-27T03:08:02.454Z,17.94
2018-11-27T03:09:01.272Z,17.93
2018-11-27T03:10:01.905Z,17.89
2018-11-27T03:11:01.244Z,17.93
2018-11-27T03:12:01.601Z,17.93
2018-11-27T03:13:01.569Z,17.95
2018-11-27T03:14:01.774Z,17.91
2018-11-27T03:15:01.768Z,17.89
2018-11-27T03:16:01.623Z,17.91
2018-11-27T03:17:01.460Z,17.91
2018-11-27T03:18:01.602Z,17.91
2018-11-27T03:19:01.774Z,17.93
2018-11-27T03:20:01.306Z,17.91
2018-11-27T03:21:01.420Z,17.91
2018-11-27T03:22:01.546Z,17.91
2018-11-27T03:23:01.304Z,17.89
2018-11-27T03:24:01.702Z,17.91
2018-11-27T03:25:01.282Z,17.89
2018-11-27T03:26:01.776Z,17.93
2018-11-27T03:27:01.437Z,17.91
2018-11-27T03:28:01.743Z,17.91
2018-11-27T03:29:01.305Z,17.88
2018-11-27T03:30:01.564Z,17.88
2018-11-27T03:31:01.512Z,17.93
2018-11-27T03:32:01.552Z,17.89
2018-11-27T03:33:01.588Z,17.89
2018-11-27T03:34:01.712Z,17.89
2018-11-27T03:35:01.454Z,17.87
2018-11-27T03:36:01.266Z,17.91
2018-11-27T03:37:01.539Z,17.89
2018-11-27T03:38:01.324Z,17.89
2018-11-27T03:39:01.421Z,17.91
2018-11-27T03:40:01.328Z,17.89
2018-11-27T03:41:01.343Z,17.89
2018-11-27T03:42:01.808Z,17.89
2018-11-27T03:43:01.597Z,17.88
2018-11-27T03:44:01.460Z,17.89
2018-11-27T03:45:01.306Z,17.88
2018-11-27T03:46:01.758Z,17.87
2018-11-27T03:47:01.313Z,17.85
2018-11-27T03:48:01.886Z,17.88
2018-11-27T03:49:01.439Z,17.87
2018-11-27T03:50:01.519Z,17.87
2018-11-27T03:51:01.859Z,17.87
2018-11-27T03:52:01.267Z,17.87
2018-11-27T03:53:01.442Z,17.89
2018-11-27T03:54:01.240Z,17.89
2018-11-27T03:55:01.365Z,17.89
2018-11-27T03:56:01.342Z,17.87
2018-11-27T03:57:01.357Z,17.88
2018-11-27T03:58:01.749Z,17.88
2018-11-27T03:59:01.448Z,17.87
2018-11-27T04:00:01.525Z,17.85
2018-11-27T04:01:01.219Z,17.84
2018-11-27T04:02:01.423Z,17.87
2018-11-27T04:03:01.534Z,17.87
2018-11-27T04:04:01.273Z,17.88
2018-11-27T04:05:01.456Z,17.87
2018-11-27T04:06:01.403Z,17.88
2018-11-27T04:07:01.379Z,17.85
2018-11-27T04:08:01.309Z,17.85
2018-11-27T04:09:01.455Z,17.87
2018-11-27T04:10:01.236Z,17.84
2018-11-27T04:11:01.330Z,17.85
2018-11-27T04:12:01.191Z,17.87
2018-11-27T04:13:01.383Z,17.84
2018-11-27T04:14:01.445Z,17.84
2018-11-27T04:15:01.409Z,17.84
2018-11-27T04:16:01.683Z,17.87
2018-11-27T04:17:01.902Z,17.85
2018-11-27T04:18:01.378Z,17.87
2018-11-27T04:19:01.209Z,17.87
2018-11-27T04:20:01.832Z,17.87
2018-11-27T04:21:01.568Z,17.85
2018-11-27T04:22:01.746Z,17.84
2018-11-27T04:23:01.515Z,17.84
2018-11-27T04:24:01.453Z,17.84
2018-11-27T04:25:01.545Z,17.84
2018-11-27T04:26:01.578Z,17.84
2018-11-27T04:27:02.166Z,17.82
2018-11-27T04:28:01.825Z,17.82
2018-11-27T04:29:01.670Z,17.82
2018-11-27T04:30:01.408Z,17.82
2018-11-27T04:31:01.549Z,17.81
2018-11-27T04:32:01.434Z,17.82
2018-11-27T04:33:01.385Z,17.8
2018-11-27T04:34:01.429Z,17.81
2018-11-27T04:35:01.768Z,17.85
2018-11-27T04:36:01.199Z,17.84
2018-11-27T04:37:01.241Z,17.84
2018-11-27T04:38:01.570Z,17.82
2018-11-27T04:39:01.748Z,17.84
2018-11-27T04:40:01.446Z,17.81
2018-11-27T04:41:01.254Z,17.82
2018-11-27T04:42:01.377Z,17.78
2018-11-27T04:43:01.377Z,17.78
2018-11-27T04:44:01.548Z,17.81
2018-11-27T04:45:01.490Z,17.81
2018-11-27T04:46:01.450Z,17.8
2018-11-27T04:47:01.877Z,17.8
2018-11-27T04:48:01.805Z,17.82
2018-11-27T04:49:01.762Z,17.84
2018-11-27T04:50:01.293Z,17.84
2018-11-27T04:51:01.287Z,17.85
2018-11-27T04:52:01.787Z,17.87
2018-11-27T04:53:01.650Z,17.87
2018-11-27T04:54:02.052Z,17.89
2018-11-27T04:55:01.309Z,17.91
2018-11-27T04:56:01.846Z,17.94
2018-11-27T04:57:01.561Z,17.91
2018-11-27T04:58:01.777Z,17.95
2018-11-27T04:59:01.229Z,17.95
2018-11-27T05:00:01.425Z,17.98
2018-11-27T05:01:01.721Z,18.01
2018-11-27T05:02:01.376Z,18.01
2018-11-27T05:03:02.270Z,18.01
2018-11-27T05:04:01.244Z,18.02
2018-11-27T05:05:01.420Z,18.07
2018-11-27T05:06:01.090Z,18.07
2018-11-27T05:07:01.839Z,18.08
2018-11-27T05:08:01.373Z,18.09
2018-11-27T05:09:01.659Z,18.11
2018-11-27T05:10:01.455Z,18.15
2018-11-27T05:11:01.270Z,18.16
2018-11-27T05:12:01.397Z,18.19
2018-11-27T05:13:01.355Z,18.19
2018-11-27T05:14:01.675Z,18.22
2018-11-27T05:15:01.807Z,18.21
2018-11-27T05:16:01.327Z,18.25
2018-11-27T05:17:01.289Z,18.25
2018-11-27T05:18:01.790Z,18.29
2018-11-27T05:19:01.809Z,18.29
2018-11-27T05:20:01.853Z,18.29
2018-11-27T05:21:02.357Z,18.32
2018-11-27T05:22:01.766Z,18.33
2018-11-27T05:23:01.676Z,18.35
2018-11-27T05:24:01.807Z,18.37
2018-11-27T05:25:01.391Z,18.35
2018-11-27T05:26:01.315Z,18.37
2018-11-27T05:27:01.608Z,18.41
2018-11-27T05:28:01.451Z,18.43
2018-11-27T05:29:01.702Z,18.41
2018-11-27T05:30:01.486Z,18.43
2018-11-27T05:31:01.307Z,18.44
2018-11-27T05:32:01.414Z,18.46
2018-11-27T05:33:01.410Z,18.46
2018-11-27T05:34:01.606Z,18.47
2018-11-27T05:35:01.245Z,18.49
2018-11-27T05:36:01.852Z,18.49
2018-11-27T05:37:01.431Z,18.5
2018-11-27T05:38:01.359Z,18.5
2018-11-27T05:39:01.454Z,18.5
2018-11-27T05:40:01.524Z,18.54
2018-11-27T05:41:01.293Z,18.53
2018-11-27T05:42:01.208Z,18.53
2018-11-27T05:43:01.638Z,18.54
2018-11-27T05:44:01.325Z,18.56
2018-11-27T05:45:01.185Z,18.54
2018-11-27T05:46:01.598Z,18.57
2018-11-27T05:47:01.329Z,18.57
2018-11-27T05:48:01.423Z,18.58
2018-11-27T05:49:01.303Z,18.58
2018-11-27T05:50:01.369Z,18.6
2018-11-27T05:51:01.227Z,18.6
2018-11-27T05:52:01.941Z,18.6
2018-11-27T05:53:01.195Z,18.62
2018-11-27T05:54:01.636Z,18.62
2018-11-27T05:55:01.474Z,18.58
2018-11-27T05:56:01.269Z,18.62
2018-11-27T05:57:01.465Z,18.6
2018-11-27T05:58:01.553Z,18.63
2018-11-27T05:59:01.614Z,18.62
2018-11-27T06:00:01.634Z,18.6
2018-11-27T06:01:01.899Z,18.62
2018-11-27T06:02:01.466Z,18.62
2018-11-27T06:03:01.775Z,18.63
2018-11-27T06:04:01.462Z,18.63
2018-11-27T06:05:01.713Z,18.62
2018-11-27T06:06:01.418Z,18.62
2018-11-27T06:07:01.584Z,18.62
2018-11-27T06:08:01.499Z,18.62
2018-11-27T06:09:01.755Z,18.6
2018-11-27T06:10:01.541Z,18.6
2018-11-27T06:11:01.426Z,18.6
2018-11-27T06:12:01.360Z,18.58
2018-11-27T06:13:01.509Z,18.62
2018-11-27T06:14:01.474Z,18.62
2018-11-27T06:15:01.301Z,18.58
2018-11-27T06:16:02.427Z,18.6
2018-11-27T06:17:01.392Z,18.6
2018-11-27T06:18:01.261Z,18.6
2018-11-27T06:19:01.395Z,18.58
2018-11-27T06:20:01.421Z,18.57
2018-11-27T06:21:01.187Z,18.58
2018-11-27T06:22:01.371Z,18.58
2018-11-27T06:23:01.460Z,18.57
2018-11-27T06:24:01.378Z,18.6
2018-11-27T06:25:01.095Z,18.57
2018-11-27T06:26:01.332Z,18.6
2018-11-27T06:27:01.446Z,18.57
2018-11-27T06:28:01.196Z,18.57
2018-11-27T06:29:01.358Z,18.54
2018-11-27T06:30:01.467Z,18.6
2018-11-27T06:31:01.405Z,18.58
2018-11-27T06:32:01.573Z,18.56
2018-11-27T06:33:01.774Z,18.57
2018-11-27T06:34:01.621Z,18.57
2018-11-27T06:35:01.428Z,18.56
2018-11-27T06:36:01.711Z,18.54
2018-11-27T06:37:01.430Z,18.54
2018-11-27T06:38:01.432Z,18.51
2018-11-27T06:39:01.310Z,18.56
2018-11-27T06:40:01.421Z,18.53
2018-11-27T06:41:01.168Z,18.57
2018-11-27T06:42:01.853Z,18.5
2018-11-27T06:43:01.096Z,18.53
2018-11-27T06:44:01.548Z,18.54
2018-11-27T06:45:01.830Z,18.51
2018-11-27T06:46:01.173Z,18.54
2018-11-27T06:47:01.393Z,18.5
2018-11-27T06:48:01.262Z,18.51
2018-11-27T06:49:01.368Z,18.49
2018-11-27T06:50:01.215Z,18.5
2018-11-27T06:51:01.359Z,18.51
2018-11-27T06:52:01.124Z,18.49
2018-11-27T06:53:01.295Z,18.49
2018-11-27T06:54:01.608Z,18.47
2018-11-27T06:55:01.517Z,18.47
2018-11-27T06:56:01.769Z,18.47
2018-11-27T06:57:01.497Z,18.49
2018-11-27T06:58:01.564Z,18.49
2018-11-27T06:59:01.605Z,18.49
2018-11-27T07:00:01.511Z,18.47
2018-11-27T07:01:01.456Z,18.49
2018-11-27T07:02:01.202Z,18.46
2018-11-27T07:03:01.827Z,18.47
2018-11-27T07:04:01.392Z,18.46
2018-11-27T07:05:01.485Z,18.47
2018-11-27T07:06:01.184Z,18.47
2018-11-27T07:07:01.269Z,18.46
2018-11-27T07:08:01.811Z,18.46
2018-11-27T07:09:01.331Z,18.46
2018-11-27T07:10:01.394Z,18.46
2018-11-27T07:11:01.613Z,18.47
2018-11-27T07:12:01.189Z,18.44
2018-11-27T07:13:01.739Z,18.46
2018-11-27T07:14:01.521Z,18.44
2018-11-27T07:15:01.295Z,18.49
2018-11-27T07:16:01.268Z,18.47
2018-11-27T07:17:01.343Z,18.44
2018-11-27T07:18:01.219Z,18.44
2018-11-27T07:19:01.358Z,18.47
2018-11-27T07:20:01.239Z,18.44
2018-11-27T07:21:01.207Z,18.47
2018-11-27T07:22:01.255Z,18.46
2018-11-27T07:23:01.340Z,18.46
2018-11-27T07:24:01.302Z,18.44
2018-11-27T07:25:01.379Z,18.44
2018-11-27T07:26:01.364Z,18.44
2018-11-27T07:27:01.126Z,18.46
2018-11-27T07:28:01.282Z,18.44
2018-11-27T07:29:01.198Z,18.46
2018-11-27T07:30:01.607Z,18.44
2018-11-27T07:31:02.258Z,18.44
2018-11-27T07:32:01.447Z,18.44
2018-11-27T07:33:01.557Z,18.46
2018-11-27T07:34:01.418Z,18.46
2018-11-27T07:35:01.933Z,18.46
2018-11-27T07:36:01.478Z,18.46
2018-11-27T07:37:01.556Z,18.47
2018-11-27T07:38:02.301Z,18.49
2018-11-27T07:39:01.321Z,18.47
2018-11-27T07:40:03.615Z,18.47
2018-11-27T07:41:01.191Z,18.5
2018-11-27T07:42:01.250Z,18.5
2018-11-27T07:43:01.300Z,18.47
2018-11-27T07:44:01.474Z,18.5
2018-11-27T07:45:01.949Z,18.5
2018-11-27T07:46:01.525Z,18.49
2018-11-27T07:47:01.633Z,18.5
2018-11-27T07:48:01.863Z,18.51
2018-11-27T07:49:02.049Z,18.53
2018-11-27T07:50:01.323Z,18.51
2018-11-27T07:51:01.582Z,18.53
2018-11-27T07:52:01.459Z,18.54
2018-11-27T07:53:01.341Z,18.54
2018-11-27T07:54:01.345Z,18.57
2018-11-27T07:55:01.315Z,18.57
2018-11-27T07:56:01.842Z,18.57
2018-11-27T07:57:01.226Z,18.58
2018-11-27T07:58:01.477Z,18.62
2018-11-27T07:59:01.357Z,18.6
2018-11-27T08:00:01.228Z,18.63
2018-11-27T08:01:02.027Z,18.6
2018-11-27T08:02:01.422Z,18.63
2018-11-27T08:03:01.065Z,18.64
2018-11-27T08:04:01.450Z,18.62
2018-11-27T08:05:01.345Z,18.64
2018-11-27T08:06:01.356Z,18.66
2018-11-27T08:07:01.873Z,18.67
2018-11-27T08:08:01.146Z,18.64
2018-11-27T08:09:01.270Z,18.68
2018-11-27T08:10:01.719Z,18.7
2018-11-27T08:11:01.304Z,18.68
2018-11-27T08:12:01.292Z,18.7
2018-11-27T08:13:01.296Z,18.68
2018-11-27T08:14:01.399Z,18.7
2018-11-27T08:15:01.225Z,18.71
2018-11-27T08:16:01.323Z,18.71
2018-11-27T08:17:01.455Z,18.71
2018-11-27T08:18:01.379Z,18.74
2018-11-27T08:19:01.429Z,18.75
2018-11-27T08:20:01.673Z,18.73
2018-11-27T08:21:01.377Z,18.74
2018-11-27T08:22:01.709Z,18.75
2018-11-27T08:23:01.406Z,18.75
2018-11-27T08:24:01.500Z,18.75
2018-11-27T08:25:01.095Z,18.77
2018-11-27T08:26:01.228Z,18.75
2018-11-27T08:27:01.332Z,18.74
2018-11-27T08:28:01.813Z,18.78
2018-11-27T08:29:01.539Z,18.77
2018-11-27T08:30:01.346Z,18.75
2018-11-27T08:31:01.198Z,18.75
2018-11-27T08:32:01.468Z,18.77
2018-11-27T08:33:01.463Z,18.75
2018-11-27T08:34:01.713Z,18.75
2018-11-27T08:35:01.682Z,18.74
2018-11-27T08:36:01.793Z,18.74
2018-11-27T08:37:01.267Z,18.78
2018-11-27T08:38:01.473Z,18.77
2018-11-27T08:39:01.623Z,18.77
2018-11-27T08:40:01.414Z,18.75
2018-11-27T08:41:01.408Z,18.77
2018-11-27T08:42:01.425Z,18.75
2018-11-27T08:43:01.184Z,18.77
2018-11-27T08:44:01.333Z,18.78
2018-11-27T08:45:01.336Z,18.75
2018-11-27T08:46:01.396Z,18.77
2018-11-27T08:47:01.224Z,18.77
2018-11-27T08:48:01.645Z,18.75
2018-11-27T08:49:01.132Z,18.75
2018-11-27T08:50:01.272Z,18.75
2018-11-27T08:51:01.211Z,18.75
2018-11-27T08:52:01.220Z,18.77
2018-11-27T08:53:01.403Z,18.77
2018-11-27T08:54:01.129Z,18.78
2018-11-27T08:55:02.156Z,18.75
2018-11-27T08:56:01.370Z,18.78
2018-11-27T08:57:01.440Z,18.78
2018-11-27T08:58:01.204Z,18.8
2018-11-27T08:59:01.214Z,18.78
2018-11-27T09:00:01.314Z,18.77
2018-11-27T09:01:01.254Z,18.8
2018-11-27T09:02:01.333Z,18.78
2018-11-27T09:03:01.191Z,18.78
2018-11-27T09:04:01.314Z,18.78
2018-11-27T09:05:01.200Z,18.78
2018-11-27T09:06:01.218Z,18.77
2018-11-27T09:07:01.379Z,18.8
2018-11-27T09:08:01.185Z,18.77
2018-11-27T09:09:01.378Z,18.77
2018-11-27T09:10:01.482Z,18.75
2018-11-27T09:11:01.587Z,18.77
2018-11-27T09:12:01.139Z,18.75
2018-11-27T09:13:02.313Z,18.75
2018-11-27T09:14:01.781Z,18.74
2018-11-27T09:15:01.671Z,18.74
2018-11-27T09:16:01.526Z,18.74
2018-11-27T09:17:01.221Z,18.75
2018-11-27T09:18:01.581Z,18.73
2018-11-27T09:19:01.074Z,18.71
2018-11-27T09:20:01.532Z,18.71
2018-11-27T09:21:01.358Z,18.73
2018-11-27T09:22:02.047Z,18.71
2018-11-27T09:23:01.256Z,18.7
2018-11-27T09:24:01.231Z,18.71
2018-11-27T09:25:01.692Z,18.71
2018-11-27T09:26:01.019Z,18.71
2018-11-27T09:27:01.269Z,18.71
2018-11-27T09:28:01.833Z,18.71
2018-11-27T09:29:01.288Z,18.7
2018-11-27T09:30:01.428Z,18.7
2018-11-27T09:31:01.352Z,18.7
2018-11-27T09:32:01.705Z,18.7
2018-11-27T09:33:01.426Z,18.68
2018-11-27T09:34:01.553Z,18.68
2018-11-27T09:35:01.301Z,18.67
2018-11-27T09:36:01.516Z,18.67
2018-11-27T09:37:01.473Z,18.66
2018-11-27T09:38:01.162Z,18.66
2018-11-27T09:39:01.523Z,18.67
2018-11-27T09:40:01.198Z,18.68
2018-11-27T09:41:01.828Z,18.66
2018-11-27T09:42:01.203Z,18.66
2018-11-27T09:43:01.164Z,18.66
2018-11-27T09:44:01.182Z,18.64
2018-11-27T09:45:01.634Z,18.63
2018-11-27T09:46:01.331Z,18.66
2018-11-27T09:47:01.180Z,18.63
2018-11-27T09:48:01.425Z,18.63
2018-11-27T09:49:01.576Z,18.64
2018-11-27T09:50:01.741Z,18.64
2018-11-27T09:51:01.043Z,18.64
2018-11-27T09:52:01.490Z,18.66
2018-11-27T09:53:01.359Z,18.64
2018-11-27T09:54:01.198Z,18.64
2018-11-27T09:55:01.621Z,18.63
2018-11-27T09:56:01.421Z,18.63
2018-11-27T09:57:01.298Z,18.64
2018-11-27T09:58:01.088Z,18.63
2018-11-27T09:59:01.267Z,18.64
2018-11-27T10:00:01.451Z,18.66
2018-11-27T10:01:01.266Z,18.62
2018-11-27T10:02:01.433Z,18.64
2018-11-27T10:03:01.220Z,18.63
2018-11-27T10:04:01.338Z,18.63
2018-11-27T10:05:01.339Z,18.64
2018-11-27T10:06:01.613Z,18.66
2018-11-27T10:07:01.387Z,18.63
2018-11-27T10:08:01.272Z,18.63
2018-11-27T10:09:01.108Z,18.63
2018-11-27T10:10:01.270Z,18.63
2018-11-27T10:11:01.404Z,18.64
2018-11-27T10:12:01.477Z,18.62
2018-11-27T10:13:01.327Z,18.63
2018-11-27T10:14:01.783Z,18.6
2018-11-27T10:15:01.470Z,18.62
2018-11-27T10:16:01.361Z,18.63
2018-11-27T10:17:01.198Z,18.62
2018-11-27T10:18:01.400Z,18.63
2018-11-27T10:19:01.363Z,18.62
2018-11-27T10:20:01.722Z,18.64
2018-11-27T10:21:01.120Z,18.63
2018-11-27T10:22:01.303Z,18.62
2018-11-27T10:23:01.111Z,18.62
2018-11-27T10:24:01.168Z,18.62
2018-11-27T10:25:01.028Z,18.63
2018-11-27T10:26:01.248Z,18.64
2018-11-27T10:27:01.492Z,18.62
2018-11-27T10:28:01.450Z,18.63
2018-11-27T10:29:01.231Z,18.63
2018-11-27T10:30:01.121Z,18.63
2018-11-27T10:31:01.274Z,18.63
2018-11-27T10:32:01.146Z,18.63
2018-11-27T10:33:01.423Z,18.6
2018-11-27T10:34:01.104Z,18.64
2018-11-27T10:35:01.450Z,18.63
2018-11-27T10:36:01.228Z,18.63
2018-11-27T10:37:01.135Z,18.64
2018-11-27T10:38:01.322Z,18.64
2018-11-27T10:39:01.306Z,18.64
2018-11-27T10:40:01.042Z,18.64
2018-11-27T10:41:01.059Z,18.63
2018-11-27T10:42:01.362Z,18.64
2018-11-27T10:43:01.313Z,18.64
2018-11-27T10:44:01.190Z,18.64
2018-11-27T10:45:02.425Z,18.63
2018-11-27T10:46:01.079Z,18.66
2018-11-27T10:47:01.193Z,18.64
2018-11-27T10:48:01.418Z,18.67
2018-11-27T10:49:01.170Z,18.66
2018-11-27T10:50:01.070Z,18.63
2018-11-27T10:51:01.102Z,18.63
2018-11-27T10:52:01.842Z,18.66
2018-11-27T10:53:01.870Z,18.66
2018-11-27T10:54:01.396Z,18.66
2018-11-27T10:55:01.468Z,18.67
2018-11-27T10:56:01.477Z,18.66
2018-11-27T10:57:01.086Z,18.67
2018-11-27T10:58:01.560Z,18.67
2018-11-27T10:59:01.390Z,18.66
2018-11-27T11:00:01.897Z,18.66
2018-11-27T11:01:01.227Z,18.66
2018-11-27T11:02:01.198Z,18.63
2018-11-27T11:03:01.205Z,18.64
2018-11-27T11:04:01.022Z,18.67
2018-11-27T11:05:01.202Z,18.66
2018-11-27T11:06:01.336Z,18.64
2018-11-27T11:07:01.095Z,18.63
2018-11-27T11:08:01.566Z,18.63
2018-11-27T11:09:01.027Z,18.63
2018-11-27T11:10:01.396Z,18.63
2018-11-27T11:11:01.094Z,18.64
2018-11-27T11:12:01.491Z,18.62
2018-11-27T11:13:01.389Z,18.64
2018-11-27T11:14:01.493Z,18.64
2018-11-27T11:15:01.578Z,18.63
2018-11-27T11:16:01.404Z,18.62
2018-11-27T11:17:01.323Z,18.63
2018-11-27T11:18:01.100Z,18.66
2018-11-27T11:19:01.888Z,18.66
2018-11-27T11:20:01.558Z,18.64
2018-11-27T11:21:01.094Z,18.67
2018-11-27T11:22:01.486Z,18.67
2018-11-27T11:23:01.076Z,18.67
2018-11-27T11:24:01.141Z,18.66
2018-11-27T11:25:01.002Z,18.67
2018-11-27T11:26:01.227Z,18.7
2018-11-27T11:27:01.215Z,18.68
2018-11-27T11:28:01.357Z,18.7
2018-11-27T11:29:01.344Z,18.68
2018-11-27T11:30:01.118Z,18.67
2018-11-27T11:31:01.253Z,18.68
2018-11-27T11:32:01.006Z,18.7
2018-11-27T11:33:01.166Z,18.7
2018-11-27T11:34:01.428Z,18.68
2018-11-27T11:35:01.618Z,18.68
2018-11-27T11:36:01.331Z,18.7
2018-11-27T11:37:01.442Z,18.7
2018-11-27T11:38:01.697Z,18.7
2018-11-27T11:39:01.334Z,18.7
2018-11-27T11:40:01.310Z,18.68
2018-11-27T11:41:01.288Z,18.68
2018-11-27T11:42:01.582Z,18.68
2018-11-27T11:43:02.120Z,18.67
2018-11-27T11:44:01.217Z,18.68
2018-11-27T11:45:00.962Z,18.68
2018-11-27T11:46:01.098Z,18.7
2018-11-27T11:47:01.470Z,18.7
2018-11-27T11:48:01.061Z,18.7
2018-11-27T11:49:02.157Z,18.68
2018-11-27T11:50:01.248Z,18.67
2018-11-27T11:51:01.864Z,18.68
2018-11-27T11:52:01.329Z,18.68
2018-11-27T11:53:01.428Z,18.68
2018-11-27T11:54:01.656Z,18.66
2018-11-27T11:55:01.022Z,18.68
2018-11-27T11:56:01.374Z,18.67
2018-11-27T11:57:01.390Z,18.67
2018-11-27T11:58:01.129Z,18.67
2018-11-27T11:59:01.005Z,18.67
2018-11-27T12:00:01.130Z,18.66
2018-11-27T12:01:01.307Z,18.68
2018-11-27T12:02:01.154Z,18.68
2018-11-27T12:03:01.237Z,18.67
2018-11-27T12:04:01.116Z,18.67
2018-11-27T12:05:00.998Z,18.67
2018-11-27T12:06:01.133Z,18.67
2018-11-27T12:07:01.230Z,18.68
2018-11-27T12:08:01.190Z,18.66
2018-11-27T12:09:01.171Z,18.66
2018-11-27T12:10:01.298Z,18.66
2018-11-27T12:11:01.185Z,18.66
2018-11-27T12:12:01.083Z,18.67
2018-11-27T12:13:01.145Z,18.67
2018-11-27T12:14:01.059Z,18.66
2018-11-27T12:15:01.551Z,18.68
2018-11-27T12:16:01.275Z,18.66
2018-11-27T12:17:01.422Z,18.66
2018-11-27T12:18:01.194Z,18.66
2018-11-27T12:19:01.137Z,18.66
2018-11-27T12:20:01.115Z,18.67
2018-11-27T12:21:01.243Z,18.66
2018-11-27T12:22:01.332Z,18.63
2018-11-27T12:23:01.353Z,18.66
2018-11-27T12:24:01.332Z,18.64
2018-11-27T12:25:01.164Z,18.66
2018-11-27T12:26:01.605Z,18.64
2018-11-27T12:27:01.109Z,18.63
2018-11-27T12:28:01.309Z,18.64
2018-11-27T12:29:01.123Z,18.66
2018-11-27T12:30:01.213Z,18.64
2018-11-27T12:31:00.999Z,18.64
2018-11-27T12:32:01.027Z,18.66
2018-11-27T12:33:02.305Z,18.66
2018-11-27T12:34:01.180Z,18.64
2018-11-27T12:35:01.317Z,18.66
2018-11-27T12:36:01.437Z,18.64
2018-11-27T12:37:01.136Z,18.66
2018-11-27T12:38:00.997Z,18.63
2018-11-27T12:39:01.373Z,18.66
2018-11-27T12:40:01.028Z,18.62
2018-11-27T12:41:01.015Z,18.64
2018-11-27T12:42:01.124Z,18.64
2018-11-27T12:43:01.286Z,18.64
2018-11-27T12:44:01.308Z,18.63
2018-11-27T12:45:01.326Z,18.62
2018-11-27T12:46:01.190Z,18.62
2018-11-27T12:47:01.510Z,18.63
2018-11-27T12:48:01.477Z,18.63
2018-11-27T12:49:01.440Z,18.62
2018-11-27T12:50:01.368Z,18.63
2018-11-27T12:51:01.273Z,18.63
2018-11-27T12:52:01.345Z,18.63
2018-11-27T12:53:01.275Z,18.63
2018-11-27T12:54:01.413Z,18.63
2018-11-27T12:55:01.415Z,18.62
2018-11-27T12:56:01.142Z,18.62